Time;durP1;ratioP1;P1;durP2;ratioP2;P2;SDS_P1;SDS_P2;PMS_P1;PMS_P2;Temp;Humidity;BMP_temperature;BMP_pressure;BME280_temperature;BME280_humidity;BME280_pressure;Samples;Min_cycle;Max_cycle;Signal;HPM_P1;HPM_P2
2021/12/13 00:00:41;;;;;;;;;;;;;;;9.90;4.07;100054.81;4962842;28;19974;-77
2021/12/13 00:03:27;;;;;;;;;;;;;;;9.70;5.13;100057.66;4948946;29;19966;-77
2021/12/13 00:05:55;;;;;;;;;;;;;;;10.04;1.84;100064.09;4946382;28;19933;-77
2021/12/13 00:08:25;;;;;;;;;;;;;;;9.91;2.43;100062.53;4949322;28;19914;-77
2021/12/13 00:10:59;;;;;;;;;;;;;;;10.05;2.77;100055.47;4947514;28;19954;-77
2021/12/13 00:13:44;;;;;;;;;;;;;;;10.30;2.85;100050.03;4951978;29;19941;-77
2021/12/13 00:16:10;;;;;;;;;;;;;;;10.13;4.45;100041.69;4947229;28;19918;-76
2021/12/13 00:18:38;;;;;;;;;;;;;;;10.47;2.72;100042.09;4948397;29;19923;-77
2021/12/13 00:21:08;;;;;;;;;;;;;;;10.03;5.56;100031.50;4946714;29;20383;-76
2021/12/13 00:23:46;;;;;;;;;;;;;;;10.00;5.05;100035.84;4930279;29;20310;-77
2021/12/13 00:26:11;;;;;;;;;;;;;;;10.29;4.07;100032.06;4963603;28;19922;-77
2021/12/13 00:28:38;;;;;;;;;;;;;;;10.46;7.80;100015.47;4947036;29;19922;-77
2021/12/13 00:31:08;;;;;;;;;;;;;;;10.61;12.93;100013.53;4949537;28;19922;-77
2021/12/13 00:33:38;;;;;;;;;;;;;;;10.70;18.24;99995.34;4935950;29;19918;-77
2021/12/13 00:36:12;;;;;;;;;;;;;;;10.59;23.33;99989.53;4960946;28;19949;-77
2021/12/13 00:38:42;;;;;;;;;;;;;;;10.57;26.02;99980.97;4951131;29;19922;-77
2021/12/13 00:41:12;;;;;;;;;;;;;;;10.49;28.55;99967.34;4935097;29;19970;-77
2021/12/13 00:43:41;;;;;;;;;;;;;;;10.53;30.12;99974.16;4959824;28;19923;-77
2021/12/13 00:46:08;;;;;;;;;;;;;;;10.31;32.42;99971.06;4963158;28;20445;-77
2021/12/13 00:48:34;;;;;;;;;;;;;;;10.39;30.84;99975.22;4950494;29;19953;-77
2021/12/13 00:51:01;;;;;;;;;;;;;;;10.80;30.04;99973.69;4952532;28;19918;-77
2021/12/13 00:53:28;;;;;;;;;;;;;;;10.28;35.29;99969.34;4951575;29;19922;-77
2021/12/13 00:55:53;;;;;;;;;;;;;;;10.65;31.18;99968.81;4950278;28;20384;-77
2021/12/13 00:58:23;;;;;;;;;;;;;;;10.70;33.49;99969.59;4934660;29;19928;-77
2021/12/13 01:00:48;;;;;;;;;;;;;;;10.71;37.53;99968.72;4934778;29;19922;-77
2021/12/13 01:03:16;;;;;;;;;;;;;;;10.74;40.44;99968.69;4950729;29;20455;-77
2021/12/13 01:05:41;;;;;;;;;;;;;;;10.76;43.66;99972.03;4951330;29;20416;-77
2021/12/13 01:08:15;;;;;;;;;;;;;;;9.96;45.16;99967.25;4952296;29;20005;-77
2021/12/13 01:10:52;;;;;;;;;;;;;;;9.87;32.02;99981.09;4949092;29;19958;-77
2021/12/13 01:13:20;;;;;;;;;;;;;;;10.25;29.03;99995.16;4950839;29;19977;-77
2021/12/13 01:15:49;;;;;;;;;;;;;;;10.57;28.27;99996.44;4951859;28;20364;-77
2021/12/13 01:18:23;;;;;;;;;;;;;;;10.62;28.64;99990.31;4950513;29;20426;-77
2021/12/13 01:21:01;;;;;;;;;;;;;;;10.43;30.95;99994.91;4949387;29;20461;-77
2021/12/13 01:23:41;;;;;;;;;;;;;;;10.50;33.22;99979.38;4965900;28;19926;-77
2021/12/13 01:26:29;;;;;;;;;;;;;;;10.14;27.69;99997.88;4939923;29;20376;-77
2021/12/13 01:28:56;;;;;;;;;;;;;;;10.32;21.76;100014.81;4950467;29;19919;-77
2021/12/13 01:31:36;;;;;;;;;;;;;;;10.39;21.17;100013.84;4951470;29;19919;-77
2021/12/13 01:34:02;;;;;;;;;;;;;;;10.10;20.66;100026.25;4960074;28;19926;-76
2021/12/13 01:36:32;;;;;;;;;;;;;;;10.20;18.98;100031.28;4949858;28;19922;-77
2021/12/13 01:39:03;;;;;;;;;;;;;;;10.84;21.42;100023.47;4949967;29;20380;-77
2021/12/13 01:41:38;;;;;;;;;;;;;;;10.22;22.21;100021.81;4950594;28;19953;-77
2021/12/13 01:44:14;;;;;;;;;;;;;;;10.05;25.21;100024.59;4950714;29;19918;-77
2021/12/13 01:46:40;;;;;;;;;;;;;;;10.45;23.33;100018.91;4950917;29;20021;-77
2021/12/13 01:49:06;;;;;;;;;;;;;;;10.71;26.60;100020.22;4950919;29;19923;-77
2021/12/13 01:51:33;;;;;;;;;;;;;;;10.59;32.35;100004.97;4954935;28;19925;-77
2021/12/13 01:54:17;;;;;;;;;;;;;;;10.56;35.62;100000.75;4949959;29;20415;-77
2021/12/13 01:56:57;;;;;;;;;;;;;;;10.59;37.55;99990.38;4933681;29;19922;-77
2021/12/13 01:59:52;;;;;;;;;;;;;;;10.70;38.82;99979.91;4948229;29;20368;-77
2021/12/13 02:02:13;;;;;;;;;;;;;;;10.87;41.25;99985.59;4949205;29;19963;-77
2021/12/13 02:04:39;;;;;;;;;;;;;;;10.65;44.90;99989.41;4949845;28;19954;-77
2021/12/13 02:07:05;;;;;;;;;;;;;;;10.38;44.64;99985.56;4950494;29;19922;-77
2021/12/13 02:09:33;;;;;;;;;;;;;;;10.60;42.69;99992.06;4992975;23;20008;-67
2021/12/13 02:12:00;;;;;;;;;;;;;;;10.58;42.67;99990.38;5002409;28;20008;-68
2021/12/13 02:14:29;;;;;;;;;;;;;;;10.69;44.79;99988.50;5001949;28;19936;-68
2021/12/13 02:17:10;;;;;;;;;;;;;;;10.84;46.82;99990.81;5002169;28;19933;-66
2021/12/13 02:19:41;;;;;;;;;;;;;;;10.49;47.55;99993.09;5002099;28;19917;-67
2021/12/13 02:22:25;;;;;;;;;;;;;;;10.88;45.59;99996.78;5001823;28;20034;-68
2021/12/13 02:24:54;;;;;;;;;;;;;;;10.62;48.73;99990.31;5002698;28;19921;-68
2021/12/13 02:27:42;;;;;;;;;;;;;;;10.62;47.34;99989.47;5001983;28;20118;-68
2021/12/13 02:30:27;;;;;;;;;;;;;;;10.16;40.81;100001.28;5001377;28;20008;-68
2021/12/13 02:33:22;;;;;;;;;;;;;;;9.81;35.59;100022.38;5000945;28;19921;-68
2021/12/13 02:35:52;;;;;;;;;;;;;;;10.07;29.99;100034.03;4999451;28;19921;-67
2021/12/13 02:38:38;;;;;;;;;;;;;;;9.92;30.06;100035.06;4985714;28;20383;-67
2021/12/13 02:41:25;;;;;;;;;;;;;;;9.66;25.90;100055.97;4987593;28;19925;-67
2021/12/13 02:43:54;;;;;;;;;;;;;;;9.69;17.79;100077.34;5004047;28;19918;-67
2021/12/13 02:46:19;;;;;;;;;;;;;;;10.08;13.64;100084.63;5004088;28;19918;-67
2021/12/13 02:49:26;;;;;;;;;;;;;;;9.88;13.56;100092.59;5004181;28;19964;-66
2021/12/13 02:52:03;;;;;;;;;;;;;;;9.88;10.03;100108.03;5003363;28;19936;-67
2021/12/13 02:55:04;;;;;;;;;;;;;;;9.74;10.75;100100.44;5002929;28;19980;-68
2021/12/13 02:57:38;;;;;;;;;;;;;;;9.90;6.70;100117.44;4978669;28;19921;-67
2021/12/13 03:00:20;;;;;;;;;;;;;;;10.11;4.28;100124.06;4994201;28;19947;-68
2021/12/13 03:02:47;;;;;;;;;;;;;;;9.82;6.00;100114.09;5002787;28;19968;-67
2021/12/13 03:05:22;;;;;;;;;;;;;;;10.13;3.26;100129.19;5002202;28;19925;-65
2021/12/13 03:07:50;;;;;;;;;;;;;;;9.72;5.72;100125.38;4994106;28;19952;-67
2021/12/13 03:10:19;;;;;;;;;;;;;;;10.18;2.76;100123.09;4983046;28;20625;-66
2021/12/13 03:12:45;;;;;;;;;;;;;;;9.78;5.10;100122.72;4982372;28;20371;-67
2021/12/13 03:15:12;;;;;;;;;;;;;;;9.91;2.05;100128.59;4983064;28;19972;-66
2021/12/13 03:17:41;;;;;;;;;;;;;;;10.16;2.08;100137.72;4984596;28;20003;-68
2021/12/13 03:20:12;;;;;;;;;;;;;;;9.92;2.47;100128.56;4983307;28;19925;-68
2021/12/13 03:22:56;;;;;;;;;;;;;;;9.61;2.45;100136.59;4984025;28;19922;-67
2021/12/13 03:25:54;;;;;;;;;;;;;;;9.68;1.08;100139.13;4982068;28;19918;-66
2021/12/13 03:28:22;;;;;;;;;;;;;;;9.93;0.26;100132.84;4901474;29;20010;-66
2021/12/13 03:30:48;;;;;;;;;;;;;;;9.96;0.00;100142.25;4903109;29;19923;-68
2021/12/13 03:33:15;;;;;;;;;;;;;;;10.00;0.00;100144.75;4904088;29;19922;-68
2021/12/13 03:35:44;;;;;;;;;;;;;;;10.12;0.00;100136.03;4900719;29;20377;-68
2021/12/13 03:38:30;;;;;;;;;;;;;;;10.33;0.00;100137.56;4903436;29;19919;-66
2021/12/13 03:40:58;;;;;;;;;;;;;;;10.27;0.80;100124.72;4901182;29;19919;-68
2021/12/13 03:43:32;;;;;;;;;;;;;;;10.17;1.33;100125.69;4903969;29;20407;-68
2021/12/13 03:46:03;;;;;;;;;;;;;;;10.04;1.89;100123.28;4901587;29;19923;-65
2021/12/13 03:48:32;;;;;;;;;;;;;;;9.74;3.45;100116.75;4882906;29;19926;-67
2021/12/13 03:51:02;;;;;;;;;;;;;;;9.84;1.91;100127.78;4904254;29;20316;-67
2021/12/13 03:53:29;;;;;;;;;;;;;;;10.14;0.00;100129.16;4904802;29;19938;-68
2021/12/13 03:56:01;;;;;;;;;;;;;;;9.85;1.29;100121.75;4903696;29;21845;-66
2021/12/13 03:58:27;;;;;;;;;;;;;;;9.92;0.00;100133.72;4903352;29;19983;-68
2021/12/13 04:00:54;;;;;;;;;;;;;;;9.70;0.00;100139.97;4887005;29;19975;-68
2021/12/13 04:03:23;;;;;;;;;;;;;;;9.35;0.00;100148.84;4922640;28;21062;-66
2021/12/13 04:05:50;;;;;;;;;;;;;;;9.76;0.00;100150.16;4982044;28;19922;-68
2021/12/13 04:08:17;;;;;;;;;;;;;;;9.81;0.00;100158.72;4998898;28;19925;-68
2021/12/13 04:10:52;;;;;;;;;;;;;;;9.36;0.00;100155.69;5022708;28;19941;-68
2021/12/13 04:13:23;;;;;;;;;;;;;;;9.78;0.00;100163.88;5021360;28;19925;-66
2021/12/13 04:16:02;;;;;;;;;;;;;;;9.72;0.00;100164.78;5018000;28;20028;-67
2021/12/13 04:19:05;;;;;;;;;;;;;;;9.62;0.00;100174.31;5016940;28;19921;-68
2021/12/13 04:21:18;;;;;;;;;;;;;;;9.57;0.00;100170.91;5021063;28;19928;-68
2021/12/13 04:23:55;;;;;;;;;;;;;;;9.30;0.00;100166.03;5020833;28;20027;-68
2021/12/13 04:26:21;;;;;;;;;;;;;;;9.56;0.00;100174.38;5019885;28;19917;-68
2021/12/13 04:28:48;;;;;;;;;;;;;;;9.66;0.00;100176.84;5022306;28;20095;-68
2021/12/13 04:31:21;;;;;;;;;;;;;;;9.41;0.00;100174.50;5021933;28;20381;-67
2021/12/13 04:33:52;;;;;;;;;;;;;;;9.80;0.00;100169.84;5022666;28;19922;-68
2021/12/13 04:36:40;;;;;;;;;;;;;;;9.95;0.00;100159.41;5022022;28;20597;-66
2021/12/13 04:39:30;;;;;;;;;;;;;;;9.84;0.00;100163.81;5021447;28;20416;-68
2021/12/13 04:42:01;;;;;;;;;;;;;;;10.17;0.00;100154.88;5020981;28;19972;-66
2021/12/13 04:44:36;;;;;;;;;;;;;;;10.25;0.00;100139.31;5020752;28;19944;-66
2021/12/13 04:47:05;;;;;;;;;;;;;;;9.82;0.00;100129.53;5018463;28;20067;-68
2021/12/13 04:49:31;;;;;;;;;;;;;;;10.08;0.00;100125.81;5029649;28;20378;-66
2021/12/13 04:52:04;;;;;;;;;;;;;;;10.28;0.00;100121.25;5020247;28;19921;-66
2021/12/13 04:54:31;;;;;;;;;;;;;;;10.21;0.00;100119.63;5018151;28;19933;-65
2021/12/13 04:56:56;;;;;;;;;;;;;;;10.01;0.00;100109.56;5018644;28;20002;-66
2021/12/13 04:59:25;;;;;;;;;;;;;;;9.92;0.00;100115.72;5019447;28;20011;-66
2021/12/13 05:01:54;;;;;;;;;;;;;;;9.92;0.00;100123.44;5018716;28;19921;-67
2021/12/13 05:04:20;;;;;;;;;;;;;;;9.76;0.00;100119.28;5020296;28;19917;-68
2021/12/13 05:06:45;;;;;;;;;;;;;;;9.93;0.00;100125.13;5020054;28;19956;-68
2021/12/13 05:09:12;;;;;;;;;;;;;;;9.66;0.00;100125.41;5017842;28;19972;-67
2021/12/13 05:11:39;;;;;;;;;;;;;;;9.71;0.00;100123.66;5017215;28;20805;-67
2021/12/13 05:14:12;;;;;;;;;;;;;;;10.14;0.00;100118.00;5017872;28;19928;-68
2021/12/13 05:16:40;;;;;;;;;;;;;;;9.75;0.00;100127.91;5003235;28;20014;-66
2021/12/13 05:19:09;;;;;;;;;;;;;;;9.90;0.00;100120.03;5024278;28;19921;-64
2021/12/13 05:21:36;;;;;;;;;;;;;;;9.66;0.00;100115.13;5024538;28;19921;-66
2021/12/13 05:24:04;;;;;;;;;;;;;;;9.91;0.00;100124.28;5025382;28;19978;-67
2021/12/13 05:26:32;;;;;;;;;;;;;;;9.61;0.00;100126.31;5021611;28;20310;-66
2021/12/13 05:29:00;;;;;;;;;;;;;;;9.72;0.00;100127.94;5023698;28;20310;-66
2021/12/13 05:31:26;;;;;;;;;;;;;;;10.13;0.00;100134.34;5022899;28;20435;-66
2021/12/13 05:33:53;;;;;;;;;;;;;;;9.98;0.00;100133.63;5001045;28;19928;-66
2021/12/13 05:36:22;;;;;;;;;;;;;;;10.15;0.00;100128.31;5004523;28;19917;-67
2021/12/13 05:38:49;;;;;;;;;;;;;;;10.12;0.00;100122.31;5023207;28;20020;-67
2021/12/13 05:41:22;;;;;;;;;;;;;;;9.91;3.21;100119.13;4964377;28;19979;-66
2021/12/13 05:43:49;;;;;;;;;;;;;;;10.20;0.97;100110.22;4996431;28;20008;-66
2021/12/13 05:46:17;;;;;;;;;;;;;;;10.52;0.92;100111.56;4994174;28;20024;-67
2021/12/13 05:52:24;;;;;;;;;;;;;;;10.32;5.39;100102.38;4944822;29;20873;-67
2021/12/13 05:54:51;;;;;;;;;;;;;;;10.18;4.15;100101.66;4919512;29;19926;-68
2021/12/13 05:57:21;;;;;;;;;;;;;;;10.25;6.83;100090.41;4947573;29;20036;-67
2021/12/13 05:59:55;;;;;;;;;;;;;;;10.57;5.04;100089.16;4948008;29;20470;-67
2021/12/13 06:02:39;;;;;;;;;;;;;;;10.69;9.72;100086.38;4949068;29;19922;-68
2021/12/13 06:05:07;;;;;;;;;;;;;;;10.70;14.54;100080.38;4944236;29;19922;-67
2021/12/13 06:07:33;;;;;;;;;;;;;;;10.80;19.51;100076.78;4942524;29;19946;-67
2021/12/13 06:10:03;;;;;;;;;;;;;;;10.88;23.59;100069.78;4944819;29;20265;-67
2021/12/13 06:12:40;;;;;;;;;;;;;;;10.70;29.56;100069.19;4944263;29;19929;-68
2021/12/13 06:15:06;;;;;;;;;;;;;;;10.63;30.96;100068.47;4928592;29;20315;-66
2021/12/13 06:17:34;;;;;;;;;;;;;;;10.62;32.06;100062.44;4943508;28;19919;-66
2021/12/13 06:20:01;;;;;;;;;;;;;;;10.46;33.75;100074.69;4943779;28;19930;-66
2021/12/13 06:22:28;;;;;;;;;;;;;;;10.48;32.87;100076.41;4950688;28;19914;-66
2021/12/13 06:25:00;;;;;;;;;;;;;;;10.30;33.37;100072.38;4911384;28;20576;-68
2021/12/13 06:27:32;;;;;;;;;;;;;;;10.45;32.24;100074.72;4958529;28;19996;-68
2021/12/13 06:30:11;;;;;;;;;;;;;;;10.23;32.17;100074.13;5004891;28;19960;-68
2021/12/13 06:32:38;;;;;;;;;;;;;;;10.74;31.85;100076.88;5004094;28;20473;-66
2021/12/13 06:35:22;;;;;;;;;;;;;;;10.87;35.54;100082.69;5005196;28;19920;-68
2021/12/13 06:37:48;;;;;;;;;;;;;;;10.89;39.53;100081.78;5004956;28;19917;-66
2021/12/13 06:40:13;;;;;;;;;;;;;;;10.76;41.55;100077.69;5004762;28;19920;-66
2021/12/13 06:42:39;;;;;;;;;;;;;;;10.95;44.53;100078.25;5004830;28;19917;-67
2021/12/13 06:45:16;;;;;;;;;;;;;;;10.84;45.97;100080.16;5004371;28;19992;-66
2021/12/13 06:47:46;;;;;;;;;;;;;;;10.41;49.00;100073.91;5005379;28;20000;-67
2021/12/13 06:50:12;;;;;;;;;;;;;;;10.93;47.64;100086.91;5005192;28;19917;-67
2021/12/13 06:52:39;;;;;;;;;;;;;;;10.57;53.75;100078.84;4997531;28;19928;-67
2021/12/13 06:55:11;;;;;;;;;;;;;;;10.55;53.93;100080.59;5003808;28;19918;-67
2021/12/13 06:57:38;;;;;;;;;;;;;;;10.73;54.65;100075.16;4986097;28;19920;-66
2021/12/13 07:00:25;;;;;;;;;;;;;;;10.72;55.67;100083.78;4986628;28;20416;-66
2021/12/13 07:02:58;;;;;;;;;;;;;;;10.94;55.22;100088.59;5004311;28;19924;-66
2021/12/13 07:05:26;;;;;;;;;;;;;;;10.72;57.78;100086.34;5009332;28;19917;-67
2021/12/13 07:08:00;;;;;;;;;;;;;;;10.79;55.36;100085.38;5006020;28;19936;-66
2021/12/13 07:10:33;;;;;;;;;;;;;;;10.65;57.12;100092.44;5022911;28;19917;-67
2021/12/13 07:13:06;;;;;;;;;;;;;;;10.65;58.28;100089.88;4989446;28;19941;-67
2021/12/13 07:15:40;;;;;;;;;;;;;;;10.51;58.38;100094.38;4999728;28;19917;-65
2021/12/13 07:18:09;;;;;;;;;;;;;;;10.60;56.90;100089.09;5023808;28;19913;-66
2021/12/13 07:20:36;;;;;;;;;;;;;;;10.54;57.53;100102.09;5023880;28;19913;-66
2021/12/13 07:23:02;;;;;;;;;;;;;;;10.66;58.65;100099.31;5024955;28;19913;-66
2021/12/13 07:25:27;;;;;;;;;;;;;;;10.54;59.57;100096.94;5024424;28;20439;-65
2021/12/13 07:27:52;;;;;;;;;;;;;;;9.99;61.15;100101.91;5030495;28;19975;-66
2021/12/13 07:30:21;;;;;;;;;;;;;;;10.34;54.52;100113.50;5025444;28;19921;-66
2021/12/13 07:32:49;;;;;;;;;;;;;;;10.08;55.01;100120.66;5025291;28;19960;-66
2021/12/13 07:35:14;;;;;;;;;;;;;;;10.27;52.10;100124.72;5025524;28;19920;-66
2021/12/13 07:37:42;;;;;;;;;;;;;;;10.00;53.38;100121.59;5025067;28;22185;-66
2021/12/13 07:40:26;;;;;;;;;;;;;;;10.49;50.92;100129.59;5023951;28;19917;-66
2021/12/13 07:42:51;;;;;;;;;;;;;;;10.80;54.25;100123.16;5025060;28;19960;-66
2021/12/13 07:45:45;;;;;;;;;;;;;;;10.39;56.40;100122.00;5024428;28;20712;-66
2021/12/13 07:48:15;;;;;;;;;;;;;;;10.67;55.98;100126.78;5005911;28;19940;-66
2021/12/13 07:50:41;;;;;;;;;;;;;;;10.27;59.80;100127.28;5024475;28;19964;-66
2021/12/13 07:53:08;;;;;;;;;;;;;;;10.44;57.86;100130.50;5023680;28;19952;-66
2021/12/13 07:55:34;;;;;;;;;;;;;;;10.42;59.38;100142.59;5024180;28;19928;-67
2021/12/13 07:58:02;;;;;;;;;;;;;;;10.33;60.09;100136.69;5000496;28;19975;-66
2021/12/13 08:00:31;;;;;;;;;;;;;;;10.18;58.31;100138.56;5030253;28;19956;-67
2021/12/13 08:03:02;;;;;;;;;;;;;;;10.30;56.26;100135.00;5024250;28;19920;-67
2021/12/13 08:05:30;;;;;;;;;;;;;;;10.50;56.57;100139.06;5002086;28;20267;-67
2021/12/13 08:07:59;;;;;;;;;;;;;;;10.39;59.18;100146.91;5016121;28;19983;-67
2021/12/13 08:10:28;;;;;;;;;;;;;;;10.67;58.15;100145.69;5024316;28;19943;-66
2021/12/13 08:13:00;;;;;;;;;;;;;;;10.45;60.28;100152.00;5024839;28;19927;-66
2021/12/13 08:15:27;;;;;;;;;;;;;;;10.45;60.18;100146.84;5025262;28;19960;-67
2021/12/13 08:17:54;;;;;;;;;;;;;;;10.38;62.83;100153.78;5024579;28;19913;-66
2021/12/13 08:20:30;;;;;;;;;;;;;;;10.26;62.42;100151.31;5001099;28;19924;-66
2021/12/13 08:22:57;;;;;;;;;;;;;;;10.29;61.82;100156.47;5000438;28;19917;-67
2021/12/13 08:25:25;;;;;;;;;;;;;;;10.54;60.92;100156.19;5024503;28;19917;-67
2021/12/13 08:27:52;;;;;;;;;;;;;;;10.48;61.63;100157.09;4984645;28;19917;-66
2021/12/13 08:30:41;;;;;;;;;;;;;;;10.36;60.97;100160.69;4999211;28;20382;-67
2021/12/13 08:33:11;;;;;;;;;;;;;;;10.46;62.34;100158.84;5012615;28;19929;-67
2021/12/13 08:35:56;;;;;;;;;;;;;;;10.76;63.61;100154.13;5027922;28;19917;-67
2021/12/13 08:38:42;;;;;;;;;;;;;;;10.51;67.59;100161.34;5029281;28;19913;-67
2021/12/13 08:41:24;;;;;;;;;;;;;;;10.61;68.13;100170.69;5023489;28;19921;-65
2021/12/13 08:43:59;;;;;;;;;;;;;;;10.51;69.69;100161.34;5005930;28;19914;-66
2021/12/13 08:46:47;;;;;;;;;;;;;;;10.27;68.99;100164.19;5026897;28;19913;-65
2021/12/13 08:49:24;;;;;;;;;;;;;;;10.46;66.36;100167.41;5018694;28;19917;-65
2021/12/13 08:51:57;;;;;;;;;;;;;;;10.52;68.10;100165.66;5032324;28;20294;-66
2021/12/13 08:54:43;;;;;;;;;;;;;;;10.46;70.51;100167.41;5022706;28;19927;-65
2021/12/13 08:57:10;;;;;;;;;;;;;;;10.17;71.09;100169.44;5018815;28;20410;-66
2021/12/13 08:59:54;;;;;;;;;;;;;;;10.25;64.62;100183.94;5046448;28;20392;-66
2021/12/13 09:02:19;;;;;;;;;;;;;;;10.33;65.25;100177.88;5016516;28;19917;-66
2021/12/13 09:05:03;;;;;;;;;;;;;;;10.20;64.35;100183.16;5033677;28;19959;-66
2021/12/13 09:07:28;;;;;;;;;;;;;;;10.02;62.20;100184.19;5009753;28;19997;-66
2021/12/13 09:10:03;;;;;;;;;;;;;;;10.56;60.46;100198.19;5034023;28;19959;-66
2021/12/13 09:12:34;;;;;;;;;;;;;;;10.22;65.08;100191.72;5033280;28;19917;-65
2021/12/13 09:15:02;;;;;;;;;;;;;;;10.35;65.19;100197.59;5031485;28;20317;-65
2021/12/13 09:17:41;;;;;;;;;;;;;;;10.33;65.94;100199.34;5033812;28;19967;-66
2021/12/13 09:20:17;;;;;;;;;;;;;;;10.28;65.98;100195.94;5034223;28;20406;-66
2021/12/13 09:22:45;;;;;;;;;;;;;;;10.04;64.28;100190.19;5033926;28;19921;-66
2021/12/13 09:25:29;;;;;;;;;;;;;;;9.93;59.74;100204.88;5033727;28;19913;-66
2021/12/13 09:28:03;;;;;;;;;;;;;;;9.96;61.66;100199.69;5033626;28;19959;-66
2021/12/13 09:30:35;;;;;;;;;;;;;;;10.30;60.34;100199.38;5033240;28;19913;-65
2021/12/13 09:33:12;;;;;;;;;;;;;;;10.43;63.57;100203.50;5033122;28;19964;-66
2021/12/13 09:35:57;;;;;;;;;;;;;;;10.34;63.68;100201.03;5033792;28;19925;-66
2021/12/13 09:38:41;;;;;;;;;;;;;;;10.49;64.11;100199.16;5031957;28;20416;-65
2021/12/13 09:41:07;;;;;;;;;;;;;;;10.66;66.43;100192.06;5032080;28;19913;-66
2021/12/13 09:43:34;;;;;;;;;;;;;;;10.44;70.28;100191.47;5032873;28;20012;-66
2021/12/13 09:45:59;;;;;;;;;;;;;;;10.70;71.24;100188.59;5032443;28;19924;-66
2021/12/13 09:48:25;;;;;;;;;;;;;;;10.58;73.47;100191.31;5032422;28;19913;-66
2021/12/13 09:50:52;;;;;;;;;;;;;;;10.15;74.89;100181.47;5032412;28;20020;-66
2021/12/13 09:53:21;;;;;;;;;;;;;;;10.37;70.82;100182.13;5032497;28;19924;-65
2021/12/13 09:55:49;;;;;;;;;;;;;;;10.71;68.32;100189.44;5008734;28;19913;-66
2021/12/13 09:58:16;;;;;;;;;;;;;;;10.53;71.34;100190.50;5032149;28;19913;-66
2021/12/13 10:00:52;;;;;;;;;;;;;;;10.68;72.86;100190.31;5032774;28;20394;-65
2021/12/13 10:03:20;;;;;;;;;;;;;;;10.67;75.17;100193.75;5031406;28;20007;-66
2021/12/13 10:05:46;;;;;;;;;;;;;;;10.77;74.78;100190.19;5031181;28;20444;-65
2021/12/13 10:08:16;;;;;;;;;;;;;;;10.94;77.29;100189.09;5032891;28;19925;-65
2021/12/13 10:11:03;;;;;;;;;;;;;;;10.68;80.21;100186.00;5009356;28;19913;-65
2021/12/13 10:13:32;;;;;;;;;;;;;;;10.75;80.38;100184.22;5031574;28;19925;-66
2021/12/13 10:16:02;;;;;;;;;;;;;;;10.71;80.46;100185.13;5031983;28;19913;-66
2021/12/13 10:18:29;;;;;;;;;;;;;;;10.85;80.33;100183.19;5014219;28;19975;-66
2021/12/13 10:20:55;;;;;;;;;;;;;;;10.89;82.34;100184.88;5032703;28;19913;-66
2021/12/13 10:23:22;;;;;;;;;;;;;;;10.98;82.64;100185.63;5030119;28;19940;-65
2021/12/13 10:25:48;;;;;;;;;;;;;;;10.74;85.78;100185.09;5030717;28;19952;-66
2021/12/13 10:28:15;;;;;;;;;;;;;;;10.95;83.65;100186.50;5032509;28;19991;-66
2021/12/13 10:30:46;;;;;;;;;;;;;;;10.64;87.64;100181.78;5029562;28;20012;-65
2021/12/13 10:33:12;;;;;;;;;;;;;;;10.94;86.10;100173.63;5025459;28;19952;-66
2021/12/13 10:35:39;;;;;;;;;;;;;;;10.65;86.96;100178.34;5032127;28;20014;-66
2021/12/13 10:38:07;;;;;;;;;;;;;;;10.64;84.33;100180.94;5008543;28;20366;-66
2021/12/13 10:40:35;;;;;;;;;;;;;;;10.85;84.66;100179.78;5031655;28;20452;-65
2021/12/13 10:43:03;;;;;;;;;;;;;;;11.17;84.81;100183.59;5032321;28;19940;-65
2021/12/13 10:45:31;;;;;;;;;;;;;;;11.23;85.32;100186.09;5032105;28;19920;-66
2021/12/13 10:48:02;;;;;;;;;;;;;;;11.05;90.02;100180.34;5029982;28;20003;-66
2021/12/13 10:50:33;;;;;;;;;;;;;;;11.11;90.76;100181.97;5031912;28;20036;-66
2021/12/13 10:53:02;;;;;;;;;;;;;;;11.23;91.95;100180.94;5018546;28;19918;-66
2021/12/13 10:55:30;;;;;;;;;;;;;;;11.02;93.98;100177.81;5027715;28;20371;-66
2021/12/13 10:57:59;;;;;;;;;;;;;;;11.01;94.56;100177.81;5030383;28;19993;-66
2021/12/13 11:00:30;;;;;;;;;;;;;;;11.09;93.70;100181.16;5030090;28;19924;-68
2021/12/13 11:02:58;;;;;;;;;;;;;;;11.30;95.02;100180.81;5026735;28;20003;-66
2021/12/13 11:05:24;;;;;;;;;;;;;;;11.24;98.16;100175.75;5028406;28;19913;-66
2021/12/13 11:07:50;;;;;;;;;;;;;;;11.21;100.00;100173.22;5031286;28;20325;-66
2021/12/13 11:10:20;;;;;;;;;;;;;;;11.22;100.00;100171.47;5027887;28;19917;-66
2021/12/13 11:12:50;;;;;;;;;;;;;;;11.23;100.00;100163.72;5028439;28;19913;-66
2021/12/13 11:15:34;;;;;;;;;;;;;;;11.28;99.70;100167.09;5031216;28;20003;-66
2021/12/13 11:18:00;;;;;;;;;;;;;;;10.99;100.00;100171.84;5031766;28;19913;-66
2021/12/13 11:20:45;;;;;;;;;;;;;;;11.27;100.00;100165.41;5031455;28;19913;-66
2021/12/13 11:23:11;;;;;;;;;;;;;;;11.13;100.00;100167.34;5020662;28;20008;-66
2021/12/13 11:25:39;;;;;;;;;;;;;;;11.15;100.00;100169.88;5030966;28;19951;-66
2021/12/13 11:28:05;;;;;;;;;;;;;;;11.29;100.00;100168.81;5030934;28;19917;-66
2021/12/13 11:30:31;;;;;;;;;;;;;;;11.10;100.00;100173.38;5031419;28;19974;-66
2021/12/13 11:32:57;;;;;;;;;;;;;;;11.21;100.00;100167.22;5013283;28;20004;-66
2021/12/13 11:35:28;;;;;;;;;;;;;;;10.91;100.00;100166.81;5031199;28;20469;-66
2021/12/13 11:38:20;;;;;;;;;;;;;;;11.33;100.00;100168.75;5030741;28;20003;-66
2021/12/13 11:40:51;;;;;;;;;;;;;;;11.26;100.00;100165.41;4931577;29;19914;-66
2021/12/13 11:43:19;;;;;;;;;;;;;;;11.37;100.00;100160.09;4946012;29;19963;-66
2021/12/13 11:46:00;;;;;;;;;;;;;;;11.25;100.00;100161.13;4949255;29;19914;-66
2021/12/13 11:48:44;;;;;;;;;;;;;;;11.07;100.00;100168.28;4936025;29;19914;-66
2021/12/13 11:51:10;;;;;;;;;;;;;;;11.24;100.00;100162.88;4950577;29;19915;-66
2021/12/13 11:53:38;;;;;;;;;;;;;;;11.06;100.00;100168.28;4950371;29;19922;-66
2021/12/13 11:56:09;;;;;;;;;;;;;;;11.22;100.00;100158.59;4950432;29;19918;-66
2021/12/13 11:58:53;;;;;;;;;;;;;;;11.05;100.00;100164.03;4950250;29;20298;-66
2021/12/13 12:01:40;;;;;;;;;;;;;;;11.12;100.00;100168.19;4933917;29;19921;-66
2021/12/13 12:04:27;;;;;;;;;;;;;;;11.27;100.00;100169.72;4951227;29;19922;-66
2021/12/13 12:06:58;;;;;;;;;;;;;;;11.36;100.00;100169.56;4950634;28;19915;-66
2021/12/13 12:09:42;;;;;;;;;;;;;;;11.24;100.00;100170.59;4950116;28;19922;-65
2021/12/13 12:12:23;;;;;;;;;;;;;;;10.92;100.00;100173.66;4950607;29;20369;-66
2021/12/13 12:14:49;;;;;;;;;;;;;;;11.26;100.00;100173.13;4950107;29;19922;-66
2021/12/13 12:17:14;;;;;;;;;;;;;;;11.18;100.00;100177.59;4979112;28;19919;-66
2021/12/13 12:19:43;;;;;;;;;;;;;;;11.44;100.00;100174.56;5036880;28;19913;-66
2021/12/13 12:22:16;;;;;;;;;;;;;;;11.34;100.00;100170.47;5030636;28;19917;-66
2021/12/13 12:24:43;;;;;;;;;;;;;;;11.29;100.00;100167.97;5021120;28;19963;-66
2021/12/13 12:27:14;;;;;;;;;;;;;;;11.32;100.00;100162.75;5029998;28;19920;-65
2021/12/13 12:29:41;;;;;;;;;;;;;;;11.26;100.00;100163.66;5030481;28;20012;-66
2021/12/13 12:32:29;;;;;;;;;;;;;;;11.05;100.00;100156.28;5030715;28;19913;-66
2021/12/13 12:35:00;;;;;;;;;;;;;;;10.94;100.00;100160.75;5017986;28;19917;-66
2021/12/13 12:37:31;;;;;;;;;;;;;;;11.03;100.00;100170.94;5030280;28;19913;-66
2021/12/13 12:40:05;;;;;;;;;;;;;;;10.77;100.00;100167.00;5030209;28;19913;-66
2021/12/13 12:42:47;;;;;;;;;;;;;;;10.89;100.00;100164.25;5034436;28;19913;-66
2021/12/13 12:45:33;;;;;;;;;;;;;;;10.71;100.00;100172.25;5030738;28;19917;-66
2021/12/13 12:48:17;;;;;;;;;;;;;;;11.07;100.00;100170.00;5019971;28;19913;-66
2021/12/13 12:50:54;;;;;;;;;;;;;;;11.13;100.00;100169.94;5030596;28;19913;-66
2021/12/13 12:53:35;;;;;;;;;;;;;;;11.07;100.00;100165.69;4998284;28;20282;-66
2021/12/13 12:56:03;;;;;;;;;;;;;;;11.21;100.00;100168.06;5030437;28;19913;-66
2021/12/13 12:58:35;;;;;;;;;;;;;;;11.14;100.00;100169.03;5029117;28;20008;-66
2021/12/13 13:01:04;;;;;;;;;;;;;;;11.14;100.00;100163.03;5015679;28;19909;-66
2021/12/13 13:03:31;;;;;;;;;;;;;;;11.11;100.00;100166.50;5012668;28;19921;-66
2021/12/13 13:06:02;;;;;;;;;;;;;;;11.07;100.00;100162.28;5030234;28;19948;-65
2021/12/13 13:08:28;;;;;;;;;;;;;;;11.09;100.00;100166.53;5029362;28;19925;-66